Terminal Aerodrome Forecast
Issued by NWS

Home | Current Version | Previous Version | Text Only | Print | Product List | Glossary On
Versions: 1 2 3 4 5 6 7
000
FTUS42 KTAE 281200 AAA
TAFABY
TAF AMD
KABY 281259Z 2813/2912 00000KT P6SM SCT010 SCT025
     FM281600 20006KT P6SM BKN020
     FM281900 21008KT P6SM BKN025
     FM282100 22008KT 6SM RA OVC015
     FM290600 24006KT 1SM -RA BR OVC005=

USA.gov is the U.S. government's official web portal to all federal, state and local government web resources and services.